createdAt,value
2017-11-07T00:02:07.695Z,4.60
2017-11-07T00:04:35.870Z,4.60
2017-11-07T00:07:04.023Z,4.60
2017-11-07T00:09:32.557Z,4.60
2017-11-07T00:12:01.560Z,4.60
2017-11-07T00:14:30.496Z,4.70
2017-11-07T00:16:58.905Z,4.60
2017-11-07T00:19:27.063Z,4.60
2017-11-07T00:21:55.206Z,4.60
2017-11-07T00:24:23.371Z,4.60
2017-11-07T00:26:51.536Z,4.60
2017-11-07T00:29:19.693Z,4.60
2017-11-07T00:31:48.231Z,4.70
2017-11-07T00:34:17.146Z,4.70
2017-11-07T00:36:45.287Z,4.70
2017-11-07T00:39:13.479Z,4.80
2017-11-07T00:41:41.733Z,4.90
2017-11-07T00:44:09.906Z,4.90
2017-11-07T00:46:38.187Z,5.00
2017-11-07T00:49:06.336Z,5.00
2017-11-07T00:51:34.535Z,5.00
2017-11-07T00:54:02.687Z,5.10
2017-11-07T00:56:30.839Z,5.20
2017-11-07T00:58:59.824Z,5.40
2017-11-07T01:01:28.770Z,5.50
2017-11-07T01:03:56.939Z,5.50
2017-11-07T01:06:25.112Z,5.60
2017-11-07T01:08:53.264Z,5.70
2017-11-07T01:11:21.465Z,5.80
2017-11-07T01:13:49.619Z,5.80
2017-11-07T01:16:17.811Z,5.90
2017-11-07T01:18:46.571Z,5.90
2017-11-07T01:21:14.752Z,5.90
2017-11-07T01:23:42.908Z,5.90
2017-11-07T01:26:11.078Z,5.90
2017-11-07T01:28:39.225Z,5.80
2017-11-07T01:31:08.159Z,5.90
2017-11-07T01:33:36.306Z,5.90
2017-11-07T01:36:04.451Z,5.90
2017-11-07T01:38:33.387Z,5.90
2017-11-07T01:41:01.535Z,5.90
2017-11-07T01:43:30.706Z,5.90
2017-11-07T01:45:58.854Z,5.90
2017-11-07T01:48:27.014Z,5.90
2017-11-07T01:50:55.150Z,5.90
2017-11-07T01:53:24.083Z,5.90
2017-11-07T01:55:52.293Z,5.90
2017-11-07T01:58:21.232Z,5.90
2017-11-07T02:00:49.485Z,5.90
2017-11-07T02:03:17.724Z,5.90
2017-11-07T02:05:45.959Z,5.90
2017-11-07T02:08:14.124Z,5.90
2017-11-07T02:10:42.278Z,5.90
2017-11-07T02:13:10.483Z,5.90
2017-11-07T02:15:39.242Z,5.80
2017-11-07T02:18:07.445Z,5.80
2017-11-07T02:20:35.623Z,5.80
2017-11-07T02:23:03.768Z,5.80
2017-11-07T02:25:31.918Z,5.80
2017-11-07T02:28:00.836Z,5.80
2017-11-07T02:30:28.990Z,5.70
2017-11-07T02:32:57.126Z,5.80
2017-11-07T02:35:25.303Z,5.70
2017-11-07T02:37:53.427Z,5.70
2017-11-07T02:40:21.596Z,5.70
2017-11-07T02:42:49.731Z,5.70
2017-11-07T02:45:18.659Z,5.80
2017-11-07T02:47:47.019Z,5.70
2017-11-07T02:50:15.978Z,5.70
2017-11-07T02:52:44.119Z,5.70
2017-11-07T02:55:12.272Z,5.70
2017-11-07T02:57:40.437Z,5.70
2017-11-07T03:00:08.593Z,5.60
2017-11-07T03:02:37.516Z,5.60
2017-11-07T03:05:06.221Z,5.60
2017-11-07T03:07:34.587Z,5.60
2017-11-07T03:10:02.736Z,5.60
2017-11-07T03:12:30.910Z,5.70
2017-11-07T03:14:59.054Z,5.70
2017-11-07T03:17:28.101Z,5.70
2017-11-07T03:19:56.242Z,5.70
2017-11-07T03:22:24.410Z,5.70
2017-11-07T03:24:53.319Z,5.70
2017-11-07T03:27:21.487Z,5.60
2017-11-07T03:29:49.838Z,5.70
2017-11-07T03:32:18.760Z,5.70
2017-11-07T03:34:46.918Z,5.70
2017-11-07T03:37:15.064Z,5.70
2017-11-07T03:39:43.249Z,5.70
2017-11-07T03:42:12.154Z,5.60
2017-11-07T03:44:40.423Z,5.60
2017-11-07T03:47:09.639Z,5.60
2017-11-07T03:49:37.796Z,5.50
2017-11-07T03:52:06.001Z,5.40
2017-11-07T03:54:34.164Z,5.40
2017-11-07T03:57:02.298Z,5.40
2017-11-07T03:59:31.214Z,5.30
2017-11-07T04:01:59.352Z,5.30
2017-11-07T04:04:27.513Z,5.30
2017-11-07T04:06:55.658Z,5.30
2017-11-07T04:09:23.832Z,5.20
2017-11-07T04:11:52.001Z,5.20
2017-11-07T04:14:20.158Z,5.20
2017-11-07T04:16:48.891Z,5.10
2017-11-07T04:19:17.046Z,5.10
2017-11-07T04:21:45.181Z,5.00
2017-11-07T04:24:13.345Z,5.10
2017-11-07T04:26:41.497Z,5.00
2017-11-07T04:29:10.468Z,5.00
2017-11-07T04:31:38.622Z,5.00
2017-11-07T04:34:06.780Z,5.00
2017-11-07T04:36:34.937Z,5.00
2017-11-07T04:39:03.074Z,4.90
2017-11-07T04:41:32.725Z,4.80
2017-11-07T04:44:00.908Z,4.80
2017-11-07T04:46:29.068Z,4.80
2017-11-07T04:48:57.201Z,4.70
2017-11-07T04:51:26.132Z,4.70
2017-11-07T04:53:54.268Z,4.70
2017-11-07T04:56:23.182Z,4.60
2017-11-07T04:58:51.336Z,4.60
2017-11-07T05:01:20.978Z,4.60
2017-11-07T05:03:49.119Z,4.60
2017-11-07T05:06:18.142Z,4.50
2017-11-07T05:08:46.278Z,4.50
2017-11-07T05:11:15.222Z,4.30
2017-11-07T05:13:43.385Z,4.30
2017-11-07T05:16:12.704Z,4.30
2017-11-07T05:18:40.891Z,4.20
2017-11-07T05:21:09.139Z,4.20
2017-11-07T05:23:37.296Z,4.10
2017-11-07T05:26:05.441Z,4.10
2017-11-07T05:28:34.360Z,4.10
2017-11-07T05:31:02.490Z,4.00
2017-11-07T05:33:31.411Z,4.00
2017-11-07T05:35:59.557Z,4.00
2017-11-07T05:38:28.475Z,3.90
2017-11-07T05:40:56.597Z,3.90
2017-11-07T05:43:24.750Z,3.90
2017-11-07T05:45:52.884Z,3.90
2017-11-07T05:48:21.052Z,3.80
2017-11-07T05:50:49.186Z,3.80
2017-11-07T05:53:17.425Z,3.70
2017-11-07T05:55:45.607Z,3.70
2017-11-07T05:58:13.748Z,3.60
2017-11-07T06:00:41.894Z,3.60
2017-11-07T06:03:10.790Z,3.50
2017-11-07T06:05:39.719Z,3.40
2017-11-07T06:08:07.851Z,3.40
2017-11-07T06:10:36.780Z,3.30
2017-11-07T06:13:04.916Z,3.30
2017-11-07T06:15:34.355Z,3.20
2017-11-07T06:18:02.491Z,3.20
2017-11-07T06:20:31.546Z,3.20
2017-11-07T06:22:59.794Z,3.10
2017-11-07T06:25:27.971Z,2.90
2017-11-07T06:27:56.146Z,2.80
2017-11-07T06:30:24.307Z,2.90
2017-11-07T06:32:52.487Z,2.90
2017-11-07T06:35:20.776Z,2.80
2017-11-07T06:37:48.943Z,2.90
2017-11-07T06:40:17.424Z,2.80
2017-11-07T06:42:45.672Z,2.80
2017-11-07T06:45:13.812Z,2.80
2017-11-07T06:47:41.991Z,2.90
2017-11-07T06:50:10.907Z,3.00
2017-11-07T06:52:39.107Z,3.00
2017-11-07T06:55:07.322Z,3.10
2017-11-07T06:57:35.531Z,3.20
2017-11-07T07:00:03.678Z,3.30
2017-11-07T07:02:32.610Z,3.20
2017-11-07T07:05:00.765Z,3.20
2017-11-07T07:07:28.932Z,3.30
2017-11-07T07:09:57.551Z,3.40
2017-11-07T07:12:25.702Z,3.50
2017-11-07T07:14:53.855Z,3.50
2017-11-07T07:17:22.000Z,3.60
2017-11-07T07:19:50.146Z,3.70
2017-11-07T07:22:18.317Z,3.70
2017-11-07T07:24:46.466Z,3.80
2017-11-07T07:27:14.606Z,4.00
2017-11-07T07:29:43.530Z,4.20
2017-11-07T07:32:12.278Z,4.10
2017-11-07T07:34:41.221Z,4.30
2017-11-07T07:37:09.352Z,4.30
2017-11-07T07:39:38.378Z,4.60
2017-11-07T07:42:06.528Z,4.50
2017-11-07T07:44:34.737Z,4.60
2017-11-07T07:47:02.862Z,4.70
2017-11-07T07:49:31.787Z,4.90
2017-11-07T07:51:59.926Z,4.90
2017-11-07T07:54:28.851Z,5.00
2017-11-07T07:56:57.007Z,5.00
2017-11-07T07:59:25.151Z,5.10
2017-11-07T08:01:54.087Z,5.30
2017-11-07T08:04:23.142Z,5.30
2017-11-07T08:06:52.182Z,5.40
2017-11-07T08:09:20.341Z,5.40
2017-11-07T08:11:48.499Z,5.50
2017-11-07T08:14:16.660Z,5.70
2017-11-07T08:16:44.820Z,5.80
2017-11-07T08:19:13.748Z,6.00
2017-11-07T08:21:41.903Z,6.00
2017-11-07T08:24:10.049Z,6.20
2017-11-07T08:26:38.999Z,6.40
2017-11-07T08:29:08.066Z,6.40
2017-11-07T08:31:36.255Z,6.50
2017-11-07T08:34:04.402Z,6.70
2017-11-07T08:36:32.595Z,6.90
2017-11-07T08:39:00.761Z,7.10
2017-11-07T08:41:28.941Z,7.30
2017-11-07T08:43:57.112Z,7.50
2017-11-07T08:46:25.310Z,7.70
2017-11-07T08:48:53.454Z,7.90
2017-11-07T08:51:22.071Z,8.10
2017-11-07T08:53:50.229Z,8.30
2017-11-07T08:56:18.374Z,8.50
2017-11-07T08:58:46.526Z,8.70
2017-11-07T09:01:15.476Z,9.00
2017-11-07T09:03:43.626Z,9.00
2017-11-07T09:06:11.804Z,9.20
2017-11-07T09:08:40.699Z,9.30
2017-11-07T09:11:09.579Z,9.50
2017-11-07T09:13:37.745Z,9.60
2017-11-07T09:16:05.887Z,9.80
2017-11-07T09:18:34.819Z,10.10
2017-11-07T09:21:02.986Z,10.10
2017-11-07T09:23:31.168Z,10.30
2017-11-07T09:25:59.306Z,10.50
2017-11-07T09:28:27.471Z,10.60
2017-11-07T09:30:56.389Z,11.00
2017-11-07T09:33:24.547Z,11.00
2017-11-07T09:35:52.726Z,11.20
2017-11-07T09:38:20.881Z,11.40
2017-11-07T09:40:49.052Z,11.60
2017-11-07T09:43:17.967Z,12.00
2017-11-07T09:45:46.131Z,11.90
2017-11-07T09:48:14.278Z,12.20
2017-11-07T09:50:43.231Z,12.50
2017-11-07T09:53:11.380Z,12.50
2017-11-07T09:55:39.554Z,12.60
2017-11-07T09:58:07.708Z,12.80
2017-11-07T10:00:35.863Z,13.00
2017-11-07T10:03:04.788Z,13.30
2017-11-07T10:05:32.951Z,13.30
2017-11-07T10:08:01.920Z,13.40
2017-11-07T10:10:30.871Z,14.00
2017-11-07T10:12:59.020Z,13.90
2017-11-07T10:15:27.169Z,14.10
2017-11-07T10:17:55.370Z,14.40
2017-11-07T10:20:23.521Z,14.70
2017-11-07T10:22:51.736Z,14.90
2017-11-07T10:25:19.884Z,15.10
2017-11-07T10:27:48.056Z,15.30
2017-11-07T10:30:16.727Z,15.40
2017-11-07T10:32:44.886Z,15.50
2017-11-07T10:35:14.712Z,15.90
2017-11-07T10:37:42.872Z,15.90
2017-11-07T10:40:11.009Z,16.00
2017-11-07T10:42:39.177Z,16.10
2017-11-07T10:45:07.320Z,16.10
2017-11-07T10:47:35.481Z,16.20
2017-11-07T10:50:03.622Z,16.20
2017-11-07T10:52:32.590Z,15.70
2017-11-07T10:55:00.831Z,15.60
2017-11-07T10:57:29.013Z,15.40
2017-11-07T10:59:58.107Z,15.00
2017-11-07T11:02:26.251Z,14.80
2017-11-07T11:04:54.414Z,14.60
2017-11-07T11:07:22.558Z,14.40
2017-11-07T11:09:50.722Z,14.20
2017-11-07T11:12:18.877Z,14.10
2017-11-07T11:14:47.048Z,13.90
2017-11-07T11:17:15.196Z,13.80
2017-11-07T11:19:43.378Z,13.60
2017-11-07T11:22:12.038Z,13.40
2017-11-07T11:24:40.243Z,13.30
2017-11-07T11:27:08.395Z,13.10
2017-11-07T11:29:36.591Z,13.00
2017-11-07T11:32:04.763Z,13.00
2017-11-07T11:34:33.013Z,13.00
2017-11-07T11:37:01.176Z,13.00
2017-11-07T11:39:29.382Z,13.10
2017-11-07T11:41:57.543Z,13.20
2017-11-07T11:44:25.712Z,13.20
2017-11-07T11:46:53.882Z,13.10
2017-11-07T11:49:22.035Z,13.10
2017-11-07T11:51:50.231Z,13.10
2017-11-07T11:54:18.474Z,13.10
2017-11-07T11:56:47.404Z,13.00
2017-11-07T11:59:15.551Z,13.00
2017-11-07T12:01:43.715Z,13.10
2017-11-07T12:04:11.866Z,13.10
2017-11-07T12:06:40.030Z,13.20
2017-11-07T12:09:08.855Z,13.10
2017-11-07T12:11:37.033Z,13.10
2017-11-07T12:14:05.230Z,13.10
2017-11-07T12:16:33.444Z,13.30
2017-11-07T12:19:01.681Z,13.40
2017-11-07T12:21:29.826Z,13.50
2017-11-07T12:23:57.995Z,13.80
2017-11-07T12:26:26.145Z,14.10
2017-11-07T12:28:55.087Z,14.70
2017-11-07T12:31:23.246Z,14.60
2017-11-07T12:33:51.963Z,15.00
2017-11-07T12:36:20.135Z,15.10
2017-11-07T12:38:48.303Z,15.30
2017-11-07T12:41:16.462Z,15.30
2017-11-07T12:43:44.738Z,15.30
2017-11-07T12:46:12.887Z,15.30
2017-11-07T12:48:41.047Z,15.20
2017-11-07T12:54:32.411Z,14.90
2017-11-07T12:57:00.600Z,14.90
2017-11-07T12:59:28.875Z,14.60
2017-11-07T13:01:57.031Z,14.50
2017-11-07T13:04:25.196Z,14.30
2017-11-07T13:06:53.562Z,14.10
2017-11-07T13:09:21.723Z,13.80
2017-11-07T13:11:50.747Z,13.60
2017-11-07T13:14:18.944Z,13.60
2017-11-07T13:16:47.099Z,13.50
2017-11-07T13:19:15.276Z,13.30
2017-11-07T13:21:43.440Z,13.20
2017-11-07T13:24:11.595Z,12.90
2017-11-07T13:26:39.749Z,12.60
2017-11-07T13:29:08.692Z,12.40
2017-11-07T13:31:37.165Z,12.40
2017-11-07T13:34:05.800Z,12.30
2017-11-07T13:36:34.709Z,12.20
2017-11-07T13:39:03.726Z,12.20
2017-11-07T13:41:31.885Z,12.20
2017-11-07T13:44:00.050Z,12.10
2017-11-07T13:46:28.230Z,12.10
2017-11-07T13:48:56.386Z,12.00
2017-11-07T13:51:24.559Z,12.00
2017-11-07T13:53:53.165Z,12.10
2017-11-07T13:56:21.330Z,12.10
2017-11-07T13:58:50.296Z,12.00
2017-11-07T14:01:19.238Z,11.90
2017-11-07T14:03:47.413Z,11.80
2017-11-07T14:06:15.671Z,11.70
2017-11-07T14:08:43.818Z,11.70
2017-11-07T14:11:12.209Z,11.60
2017-11-07T14:13:40.359Z,11.50
2017-11-07T14:16:09.292Z,11.40
2017-11-07T14:18:37.452Z,11.40
2017-11-07T14:21:05.643Z,11.30
2017-11-07T14:23:33.787Z,11.20
2017-11-07T14:26:01.961Z,11.20
2017-11-07T14:28:30.114Z,11.20
2017-11-07T14:30:59.074Z,11.10
2017-11-07T14:33:27.346Z,11.10
2017-11-07T14:35:55.499Z,11.10
2017-11-07T14:38:23.769Z,11.00
2017-11-07T14:40:51.931Z,10.90
2017-11-07T14:43:20.174Z,10.80
2017-11-07T14:45:49.102Z,10.80
2017-11-07T14:48:17.274Z,10.70
2017-11-07T14:50:45.414Z,10.70
2017-11-07T14:53:14.353Z,10.70
2017-11-07T14:55:42.523Z,10.60
2017-11-07T14:58:10.688Z,10.60
2017-11-07T15:00:38.851Z,10.50
2017-11-07T15:03:07.037Z,10.50
2017-11-07T15:05:35.182Z,10.60
2017-11-07T15:08:03.358Z,10.50
2017-11-07T15:10:31.492Z,10.50
2017-11-07T15:12:59.727Z,10.50
2017-11-07T15:15:27.893Z,10.50
2017-11-07T15:17:56.090Z,10.30
2017-11-07T15:20:24.254Z,10.30
2017-11-07T15:22:52.404Z,10.30
2017-11-07T15:25:20.590Z,10.30
2017-11-07T15:27:48.756Z,10.30
2017-11-07T15:30:16.919Z,10.30
2017-11-07T15:32:45.087Z,10.30
2017-11-07T15:35:13.271Z,10.30
2017-11-07T15:37:41.414Z,10.20
2017-11-07T15:40:09.951Z,10.20
2017-11-07T15:42:38.118Z,10.20
2017-11-07T15:45:06.289Z,10.10
2017-11-07T15:47:34.463Z,10.10
2017-11-07T15:50:02.722Z,10.10
2017-11-07T15:52:30.866Z,10.10
2017-11-07T15:54:59.055Z,10.10
2017-11-07T15:57:27.206Z,10.10
2017-11-07T15:59:56.115Z,10.10
2017-11-07T16:02:24.271Z,10.10
2017-11-07T16:04:52.946Z,10.10
2017-11-07T16:07:21.140Z,10.10
2017-11-07T16:09:49.333Z,10.20
2017-11-07T16:12:17.498Z,10.00
2017-11-07T16:14:45.677Z,10.10
2017-11-07T16:17:13.831Z,10.00
2017-11-07T16:19:41.975Z,10.00
2017-11-07T16:22:10.901Z,10.10
2017-11-07T16:24:39.063Z,10.10
2017-11-07T16:27:07.859Z,10.10
2017-11-07T16:29:36.009Z,10.20
2017-11-07T16:32:05.142Z,10.20
2017-11-07T16:34:33.292Z,10.20
2017-11-07T16:37:01.446Z,10.20
2017-11-07T16:39:30.356Z,10.20
2017-11-07T16:41:58.507Z,10.20
2017-11-07T16:44:27.447Z,10.10
2017-11-07T16:46:55.702Z,10.10
2017-11-07T16:49:23.871Z,10.20
2017-11-07T16:51:52.016Z,10.20
2017-11-07T16:54:20.947Z,10.20
2017-11-07T16:56:49.116Z,10.20
2017-11-07T16:59:17.296Z,10.20
2017-11-07T17:01:45.522Z,10.20
2017-11-07T17:04:14.456Z,10.20
2017-11-07T17:06:42.600Z,10.20
2017-11-07T17:09:11.544Z,10.20
2017-11-07T17:11:40.139Z,10.20
2017-11-07T17:14:08.320Z,10.20
2017-11-07T17:16:36.836Z,10.20
2017-11-07T17:19:05.043Z,10.20
2017-11-07T17:21:33.190Z,10.20
2017-11-07T17:24:01.363Z,10.20
2017-11-07T17:26:29.515Z,10.20
2017-11-07T17:28:58.982Z,10.20
2017-11-07T17:31:27.143Z,10.20
2017-11-07T17:33:55.283Z,10.20
2017-11-07T17:36:23.731Z,10.20
2017-11-07T17:38:52.680Z,10.20
2017-11-07T17:41:21.675Z,10.20
2017-11-07T17:43:49.848Z,10.20
2017-11-07T17:46:18.026Z,10.20
2017-11-07T17:48:46.166Z,10.20
2017-11-07T17:51:14.475Z,10.20
2017-11-07T17:53:42.613Z,10.20
2017-11-07T17:56:10.799Z,10.20
2017-11-07T17:58:38.952Z,10.20
2017-11-07T18:01:07.121Z,10.20
2017-11-07T18:03:35.574Z,10.20
2017-11-07T18:06:03.804Z,10.20
2017-11-07T18:08:31.954Z,10.20
2017-11-07T18:11:00.100Z,10.20
2017-11-07T18:13:29.679Z,10.20
2017-11-07T18:15:57.825Z,10.20
2017-11-07T18:18:26.002Z,10.20
2017-11-07T18:20:54.175Z,10.20
2017-11-07T18:23:22.358Z,10.20
2017-11-07T18:25:50.516Z,10.20
2017-11-07T18:28:18.679Z,10.20
2017-11-07T18:30:46.834Z,10.20
2017-11-07T18:33:15.020Z,10.20
2017-11-07T18:35:43.176Z,10.30
2017-11-07T18:38:11.382Z,10.30
2017-11-07T18:40:39.526Z,10.30
2017-11-07T18:43:07.753Z,10.40
2017-11-07T18:45:35.902Z,10.40
2017-11-07T18:48:04.058Z,10.40
2017-11-07T18:50:32.242Z,10.30
2017-11-07T18:53:00.427Z,10.30
2017-11-07T18:55:28.643Z,10.30
2017-11-07T18:57:57.579Z,10.30
2017-11-07T19:00:25.747Z,10.30
2017-11-07T19:02:54.093Z,10.30
2017-11-07T19:05:23.035Z,10.40
2017-11-07T19:07:51.203Z,10.30
2017-11-07T19:10:19.382Z,10.40
2017-11-07T19:12:47.543Z,10.30
2017-11-07T19:15:16.026Z,10.30
2017-11-07T19:17:44.199Z,10.30
2017-11-07T19:20:12.380Z,10.30
2017-11-07T19:22:40.558Z,10.20
2017-11-07T19:25:08.768Z,10.20
2017-11-07T19:27:37.712Z,10.20
2017-11-07T19:30:05.865Z,10.20
2017-11-07T19:32:34.037Z,10.20
2017-11-07T19:35:02.201Z,10.30
2017-11-07T19:37:30.381Z,10.30
2017-11-07T19:39:58.531Z,10.30
2017-11-07T19:42:27.481Z,10.40
2017-11-07T19:44:55.627Z,10.30
2017-11-07T19:47:23.812Z,10.40
2017-11-07T19:49:51.969Z,10.40
2017-11-07T19:52:20.149Z,10.40
2017-11-07T19:54:48.309Z,10.40
2017-11-07T19:57:16.492Z,10.30
2017-11-07T19:59:44.653Z,10.30
2017-11-07T20:02:13.059Z,10.30
2017-11-07T20:04:41.228Z,10.30
2017-11-07T20:07:09.424Z,10.40
2017-11-07T20:09:37.675Z,10.30
2017-11-07T20:12:05.852Z,10.30
2017-11-07T20:14:34.045Z,10.40
2017-11-07T20:17:02.235Z,10.40
2017-11-07T20:19:30.417Z,10.30
2017-11-07T20:21:59.357Z,10.40
2017-11-07T20:24:27.531Z,10.30
2017-11-07T20:26:55.810Z,10.40
2017-11-07T20:29:23.993Z,10.40
2017-11-07T20:31:52.153Z,10.40
2017-11-07T20:34:20.354Z,10.40
2017-11-07T20:36:48.507Z,10.40
2017-11-07T20:39:16.675Z,10.40
2017-11-07T20:41:44.830Z,10.40
2017-11-07T20:44:13.015Z,10.40
2017-11-07T20:46:41.692Z,10.40
2017-11-07T20:49:09.850Z,10.40
2017-11-07T20:51:38.007Z,10.40
2017-11-07T20:54:06.170Z,10.50
2017-11-07T20:56:35.107Z,10.50
2017-11-07T20:59:03.275Z,10.50
2017-11-07T21:01:31.444Z,10.50
2017-11-07T21:03:59.652Z,10.60
2017-11-07T21:06:27.902Z,10.50
2017-11-07T21:08:56.064Z,10.40
2017-11-07T21:11:24.243Z,10.50
2017-11-07T21:13:52.422Z,10.50
2017-11-07T21:16:20.590Z,10.50
2017-11-07T21:18:51.798Z,10.40
2017-11-07T21:21:20.731Z,10.40
2017-11-07T21:23:49.212Z,10.40
2017-11-07T21:26:17.480Z,10.40
2017-11-07T21:28:45.622Z,10.40
2017-11-07T21:31:13.822Z,10.40
2017-11-07T21:33:41.971Z,10.40
2017-11-07T21:36:10.223Z,10.40
2017-11-07T21:38:39.135Z,10.30
2017-11-07T21:41:07.331Z,10.30
2017-11-07T21:43:36.255Z,10.30
2017-11-07T21:46:04.415Z,10.30
2017-11-07T21:48:32.689Z,10.30
2017-11-07T21:51:00.835Z,10.30
2017-11-07T21:53:28.998Z,10.30
2017-11-07T21:55:57.161Z,10.30
2017-11-07T21:58:25.348Z,10.30
2017-11-07T22:00:53.518Z,10.30
2017-11-07T22:03:21.682Z,10.30
2017-11-07T22:05:49.842Z,10.40
2017-11-07T22:08:18.849Z,10.40
2017-11-07T22:10:47.056Z,10.40
2017-11-07T22:13:15.218Z,10.40
2017-11-07T22:15:43.371Z,10.40
2017-11-07T22:18:11.526Z,10.40
2017-11-07T22:20:40.526Z,10.40
2017-11-07T22:23:27.375Z,10.40
2017-11-07T22:25:55.539Z,10.30
2017-11-07T22:28:23.710Z,10.30
2017-11-07T22:30:51.870Z,10.30
2017-11-07T22:33:20.307Z,10.30
2017-11-07T22:35:48.625Z,10.30
2017-11-07T22:38:16.785Z,10.30
2017-11-07T22:40:45.566Z,10.30
2017-11-07T22:43:14.490Z,10.20
2017-11-07T22:45:42.685Z,10.20
2017-11-07T22:48:10.909Z,10.20
2017-11-07T22:50:39.838Z,10.20
2017-11-07T22:53:08.711Z,10.20
2017-11-07T22:55:36.887Z,10.20
2017-11-07T22:58:05.034Z,10.20
2017-11-07T23:00:33.704Z,10.10
2017-11-07T23:03:02.639Z,10.00
2017-11-07T23:05:30.811Z,10.00
2017-11-07T23:07:59.018Z,10.00
2017-11-07T23:10:27.803Z,9.90
2017-11-07T23:12:58.425Z,9.90
2017-11-07T23:15:26.946Z,9.80
2017-11-07T23:17:55.928Z,9.60
2017-11-07T23:20:24.870Z,9.60
2017-11-07T23:22:53.119Z,9.60
2017-11-07T23:25:21.354Z,9.50
2017-11-07T23:27:49.803Z,9.40
2017-11-07T23:30:17.955Z,9.30
2017-11-07T23:32:46.118Z,9.30
2017-11-07T23:35:14.271Z,9.30
2017-11-07T23:37:43.199Z,9.20
2017-11-07T23:40:11.575Z,9.20
2017-11-07T23:42:39.854Z,9.20
2017-11-07T23:45:07.983Z,9.20
2017-11-07T23:47:37.424Z,9.10
2017-11-07T23:50:06.177Z,9.10
2017-11-07T23:52:35.082Z,8.90
2017-11-07T23:55:03.687Z,8.90
2017-11-07T23:57:31.865Z,8.80
